Time;durP1;ratioP1;P1;durP2;ratioP2;P2;SDS_P1;SDS_P2;PMS_P1;PMS_P2;Temp;Humidity;BMP_temperature;BMP_pressure;BME280_temperature;BME280_humidity;BME280_pressure;Samples;Min_cycle;Max_cycle;Signal;HPM_P1;HPM_P2
2024/01/04 00:00:09;;;;;;;;;23.20;23.20;;;;;10.36;46.96;98348.88;5028707;28;9001;-77
2024/01/04 00:02:58;;;;;;;;;21.00;20.00;;;;;10.37;46.87;98342.72;5028381;28;8998;-79
2024/01/04 00:05:27;;;;;;;;;22.20;20.20;;;;;10.29;46.57;98337.78;5028471;28;8884;-78
2024/01/04 00:07:57;;;;;;;;;22.20;21.20;;;;;10.30;47.07;98334.22;5028399;28;8864;-78
2024/01/04 00:10:26;;;;;;;;;25.60;22.40;;;;;10.26;47.13;98337.03;5028537;28;8992;-78
2024/01/04 00:12:55;;;;;;;;;20.80;20.00;;;;;10.26;46.98;98337.88;5012157;28;8861;-77
2024/01/04 00:15:24;;;;;;;;;21.80;21.00;;;;;10.23;46.75;98340.63;5015657;28;8856;-78
2024/01/04 00:17:53;;;;;;;;;20.20;16.40;;;;;10.17;46.94;98339.09;5069475;28;8953;-76
2024/01/04 00:20:24;;;;;;;;;12.20;12.20;;;;;10.18;47.00;98332.09;5070721;28;8877;-78
2024/01/04 00:22:53;;;;;;;;;19.00;18.60;;;;;10.03;46.96;98330.91;5049482;28;8852;-77
2024/01/04 00:25:24;;;;;;;;;20.20;17.00;;;;;9.86;47.32;98328.03;5049090;28;8849;-77
2024/01/04 00:27:53;;;;;;;;;28.80;21.40;;;;;9.92;47.08;98325.19;5050717;28;8841;-77
2024/01/04 00:30:22;;;;;;;;;18.20;16.00;;;;;9.95;47.08;98325.94;5031985;28;8857;-78
2024/01/04 00:32:51;;;;;;;;;16.80;14.60;;;;;9.87;47.10;98322.72;5050616;28;9001;-78
2024/01/04 00:35:20;;;;;;;;;18.20;14.60;;;;;9.80;46.97;98319.50;5049276;28;8885;-77
2024/01/04 00:37:49;;;;;;;;;17.40;15.20;;;;;9.90;46.88;98324.41;5033203;28;8899;-76
2024/01/04 00:40:18;;;;;;;;;17.40;14.60;;;;;9.90;46.46;98321.78;5051715;28;8865;-77
2024/01/04 00:42:49;;;;;;;;;17.60;15.60;;;;;9.93;46.76;98317.28;5049060;28;8885;-78
2024/01/04 00:45:17;;;;;;;;;19.00;16.00;;;;;9.84;46.87;98317.63;5049887;28;8934;-77
2024/01/04 00:47:47;;;;;;;;;16.00;15.40;;;;;9.89;46.73;98322.69;5049077;28;9639;-77
2024/01/04 00:50:16;;;;;;;;;15.80;15.00;;;;;9.81;46.63;98312.47;5049307;28;8841;-78
2024/01/04 00:52:45;;;;;;;;;15.60;13.40;;;;;9.82;46.62;98322.06;5050072;28;8849;-77
2024/01/04 00:55:25;;;;;;;;;17.80;14.60;;;;;9.80;46.67;98322.13;5048989;28;8856;-78
2024/01/04 00:57:55;;;;;;;;;13.60;13.60;;;;;9.85;47.20;98321.94;5050181;28;8979;-76
2024/01/04 01:00:24;;;;;;;;;16.60;12.20;;;;;9.78;46.84;98318.72;5014817;28;8877;-76
2024/01/04 01:02:53;;;;;;;;;13.20;12.40;;;;;9.78;46.73;98304.69;5014317;28;8876;-77
2024/01/04 01:05:22;;;;;;;;;21.20;14.40;;;;;9.68;46.64;98298.94;5047227;28;8991;-76
2024/01/04 01:07:51;;;;;;;;;12.60;12.00;;;;;9.45;46.99;98301.53;5047221;28;8980;-76
2024/01/04 01:10:19;;;;;;;;;12.60;11.60;;;;;9.46;47.22;98304.13;5030696;28;8873;-77
2024/01/04 01:12:49;;;;;;;;;13.40;12.20;;;;;9.49;47.06;98306.63;5047043;28;8870;-78
2024/01/04 01:15:19;;;;;;;;;15.00;11.40;;;;;9.54;46.83;98301.22;4997665;28;8869;-77
2024/01/04 01:17:48;;;;;;;;;18.00;13.20;;;;;9.60;46.79;98301.00;5047098;28;8889;-77
2024/01/04 01:20:17;;;;;;;;;7.20;6.20;;;;;9.53;46.84;98296.88;5030553;28;8886;-77
2024/01/04 01:22:46;;;;;;;;;12.60;10.20;;;;;9.45;47.14;98301.53;5030220;28;8834;-77
2024/01/04 01:25:15;;;;;;;;;15.60;13.40;;;;;9.45;47.03;98294.53;5015797;28;8906;-78
2024/01/04 01:27:44;;;;;;;;;16.20;14.80;;;;;9.23;47.43;98299.69;5031842;28;8870;-80
2024/01/04 01:30:13;;;;;;;;;17.60;16.80;;;;;9.17;47.79;98313.84;5030446;28;8882;-78
2024/01/04 01:32:43;;;;;;;;;15.20;15.20;;;;;9.00;48.51;98321.47;5043001;28;8863;-78
2024/01/04 01:35:14;;;;;;;;;20.40;19.60;;;;;8.94;48.35;98313.81;5029166;28;8879;-77
2024/01/04 01:37:43;;;;;;;;;20.20;17.00;;;;;8.83;48.41;98308.94;5027817;28;8946;-78
2024/01/04 01:40:12;;;;;;;;;20.40;20.40;;;;;8.92;48.29;98307.78;5061429;28;8864;-77
2024/01/04 01:42:41;;;;;;;;;18.80;18.60;;;;;8.93;48.17;98310.34;5044489;28;8847;-79
2024/01/04 01:45:10;;;;;;;;;19.00;17.40;;;;;8.81;48.85;98313.38;5060962;28;8848;-79
2024/01/04 01:47:40;;;;;;;;;15.60;14.40;;;;;8.73;49.02;98316.25;5032502;28;8916;-76
2024/01/04 01:50:11;;;;;;;;;18.20;15.80;;;;;8.75;48.83;98301.31;5048386;28;8916;-77
2024/01/04 01:52:40;;;;;;;;;16.80;15.40;;;;;8.82;48.87;98302.84;5049415;28;8833;-77
2024/01/04 01:55:10;;;;;;;;;13.80;13.80;;;;;8.71;48.97;98294.47;5048236;28;9092;-77
2024/01/04 01:57:39;;;;;;;;;18.00;15.40;;;;;8.61;49.07;98299.16;5050801;28;8922;-77
2024/01/04 02:00:11;;;;;;;;;14.20;12.40;;;;;8.76;48.30;98302.16;5049313;28;8911;-77
2024/01/04 02:02:46;;;;;;;;;16.80;14.60;;;;;8.78;48.45;98289.88;5031046;28;8845;-78
2024/01/04 02:05:17;;;;;;;;;12.60;12.60;;;;;8.82;48.23;98302.00;5047522;28;8865;-78
2024/01/04 02:07:46;;;;;;;;;12.80;12.20;;;;;8.88;47.77;98290.44;5047601;28;8845;-77
2024/01/04 02:10:15;;;;;;;;;15.60;14.40;;;;;8.73;47.99;98279.56;5047434;28;9022;-77
2024/01/04 02:12:44;;;;;;;;;15.20;13.60;;;;;8.69;48.54;98277.97;5047223;28;9622;-78
2024/01/04 02:15:13;;;;;;;;;12.40;12.40;;;;;8.64;48.34;98275.47;5048102;28;8869;-76
2024/01/04 02:17:43;;;;;;;;;11.20;10.60;;;;;8.54;48.55;98273.25;4998630;28;8873;-77
2024/01/04 02:20:14;;;;;;;;;13.20;12.80;;;;;8.58;48.36;98270.44;5047686;28;8922;-78
2024/01/04 02:22:45;;;;;;;;;11.40;10.40;;;;;8.88;47.63;98280.81;5065065;28;8873;-77
2024/01/04 02:25:14;;;;;;;;;10.00;10.00;;;;;8.83;47.83;98278.31;5045841;28;9012;-78
2024/01/04 02:27:43;;;;;;;;;8.20;8.20;;;;;8.90;47.56;98267.66;5029737;28;8873;-77
2024/01/04 02:30:12;;;;;;;;;10.00;9.00;;;;;8.96;47.41;98260.41;5046164;28;8894;-77
2024/01/04 02:32:42;;;;;;;;;9.40;9.20;;;;;8.93;46.72;98252.69;5013865;28;9743;-78
2024/01/04 02:35:11;;;;;;;;;5.60;4.80;;;;;8.84;46.94;98255.63;4997392;28;8885;-77
2024/01/04 02:37:40;;;;;;;;;5.40;5.40;;;;;8.89;46.68;98247.59;5029508;28;8870;-77
2024/01/04 02:40:11;;;;;;;;;9.20;7.20;;;;;8.81;46.75;98242.63;5045897;28;8842;-77
2024/01/04 02:42:40;;;;;;;;;5.80;5.40;;;;;8.88;46.61;98236.25;5046194;28;8866;-77
2024/01/04 02:45:10;;;;;;;;;6.80;5.40;;;;;8.95;46.27;98237.75;5046015;28;8884;-77
2024/01/04 02:47:39;;;;;;;;;6.00;5.00;;;;;9.00;46.26;98233.19;5046486;28;8870;-77
2024/01/04 02:50:08;;;;;;;;;4.60;4.00;;;;;8.98;46.00;98234.16;5029353;28;8908;-77
2024/01/04 02:52:38;;;;;;;;;5.00;4.80;;;;;9.15;45.63;98231.78;4997941;28;8854;-76
2024/01/04 02:55:07;;;;;;;;;4.20;3.60;;;;;9.26;45.19;98218.28;5047614;28;8874;-77
2024/01/04 02:57:39;;;;;;;;;5.00;5.00;;;;;9.48;45.20;98225.34;5046939;28;8866;-76
2024/01/04 03:00:08;;;;;;;;;5.00;5.00;;;;;9.54;44.73;98226.00;5030098;28;8951;-77
2024/01/04 03:02:38;;;;;;;;;5.60;5.00;;;;;9.60;45.00;98230.19;5029357;28;8858;-77
2024/01/04 03:05:07;;;;;;;;;6.00;5.60;;;;;9.68;44.77;98225.47;4996501;28;8870;-78
2024/01/04 03:07:36;;;;;;;;;5.20;5.20;;;;;9.56;45.11;98223.31;5045560;28;8854;-79
2024/01/04 03:10:07;;;;;;;;;5.20;4.80;;;;;9.50;45.18;98218.28;4996863;28;8865;-79
2024/01/04 03:12:39;;;;;;;;;4.20;4.20;;;;;9.70;44.30;98213.16;5017122;28;8882;-76
2024/01/04 03:15:08;;;;;;;;;5.00;5.00;;;;;9.61;44.52;98219.63;5049968;28;8939;-76
2024/01/04 03:17:38;;;;;;;;;4.20;4.20;;;;;9.67;44.53;98217.66;5049625;28;8854;-77
2024/01/04 03:20:08;;;;;;;;;3.40;3.40;;;;;9.63;44.21;98224.81;5049459;28;8984;-79
2024/01/04 03:22:37;;;;;;;;;2.00;1.00;;;;;9.61;44.24;98217.00;5049279;28;8959;-76
2024/01/04 03:25:08;;;;;;;;;5.40;5.40;;;;;9.65;44.45;98216.88;5049257;28;10072;-78
2024/01/04 03:27:39;;;;;;;;;3.40;3.40;;;;;9.74;44.18;98213.91;5048735;28;9548;-77
2024/01/04 03:30:09;;;;;;;;;3.40;3.40;;;;;9.87;43.88;98202.00;5051512;28;8852;-77
2024/01/04 03:32:38;;;;;;;;;3.00;3.00;;;;;10.11;43.63;98196.69;5081319;28;9605;-76
2024/01/04 03:35:08;;;;;;;;;4.40;3.00;;;;;9.95;43.69;98199.06;5071573;28;8893;-78
2024/01/04 03:37:37;;;;;;;;;5.60;3.60;;;;;10.13;43.37;98197.47;5036453;28;8946;-78
2024/01/04 03:40:07;;;;;;;;;8.20;8.20;;;;;10.06;43.59;98196.88;5070227;28;8951;-78
2024/01/04 03:42:37;;;;;;;;;8.40;5.40;;;;;10.25;43.02;98190.88;5073046;28;8862;-76
2024/01/04 03:45:08;;;;;;;;;9.40;4.00;;;;;10.33;42.98;98194.00;5074265;28;8870;-75
2024/01/04 03:47:37;;;;;;;;;5.80;4.00;;;;;10.30;43.01;98194.16;5049878;28;9014;-77
2024/01/04 03:50:07;;;;;;;;;6.00;4.40;;;;;10.35;42.74;98179.06;5049925;28;8975;-76
2024/01/04 03:52:36;;;;;;;;;5.40;5.40;;;;;10.30;42.96;98181.88;5032096;28;9740;-76
2024/01/04 03:55:06;;;;;;;;;3.00;3.00;;;;;10.43;42.65;98176.13;4999303;28;8890;-78
2024/01/04 03:57:35;;;;;;;;;3.80;3.80;;;;;10.46;42.68;98171.56;5015887;28;8952;-77
2024/01/04 04:00:04;;;;;;;;;3.40;3.40;;;;;10.39;42.85;98170.16;5048854;28;8848;-77
2024/01/04 04:02:40;;;;;;;;;2.60;2.60;;;;;10.23;43.21;98174.31;5048539;28;8935;-77
2024/01/04 04:05:10;;;;;;;;;4.60;4.60;;;;;10.09;43.55;98167.03;5048160;28;8855;-77
2024/01/04 04:07:39;;;;;;;;;3.00;3.00;;;;;10.24;43.49;98162.91;5048090;28;8866;-77
2024/01/04 04:10:09;;;;;;;;;5.40;4.00;;;;;10.09;43.53;98167.88;5048258;28;8860;-76
2024/01/04 04:12:38;;;;;;;;;4.20;4.20;;;;;9.92;44.11;98171.19;5048051;28;8859;-77
2024/01/04 04:15:08;;;;;;;;;5.20;5.20;;;;;10.06;43.83;98172.38;4999065;28;8871;-77
2024/01/04 04:17:38;;;;;;;;;5.00;5.00;;;;;10.17;43.74;98170.19;5048169;28;8898;-78
2024/01/04 04:20:09;;;;;;;;;9.80;8.20;;;;;10.27;43.94;98158.34;5048382;28;8867;-78
2024/01/04 04:22:38;;;;;;;;;5.80;4.60;;;;;10.37;43.57;98158.84;5047747;28;8852;-77
2024/01/04 04:25:07;;;;;;;;;5.00;4.80;;;;;10.55;42.85;98162.44;5057465;28;8846;-77
2024/01/04 04:27:37;;;;;;;;;4.00;2.80;;;;;10.50;42.97;98162.66;5070801;28;8846;-77
2024/01/04 04:30:07;;;;;;;;;5.40;5.40;;;;;10.39;42.96;98157.00;5070690;28;8855;-76
2024/01/04 04:32:37;;;;;;;;;7.00;7.00;;;;;10.28;43.58;98162.72;5036399;28;8862;-77
2024/01/04 04:35:08;;;;;;;;;3.40;3.40;;;;;10.31;43.25;98157.34;5050296;28;8858;-76
2024/01/04 04:37:37;;;;;;;;;6.40;6.40;;;;;10.35;43.40;98153.66;5048441;28;8862;-77
2024/01/04 04:40:07;;;;;;;;;4.20;3.20;;;;;10.45;42.97;98154.13;5031414;28;8854;-77
2024/01/04 04:42:38;;;;;;;;;5.40;5.40;;;;;10.47;43.01;98154.06;5047880;28;8885;-77
2024/01/04 04:45:08;;;;;;;;;6.20;5.60;;;;;10.46;43.27;98147.06;5048180;28;8975;-78
2024/01/04 04:47:37;;;;;;;;;5.80;5.80;;;;;10.52;42.93;98142.44;5047955;28;8873;-78
2024/01/04 04:50:09;;;;;;;;;5.00;5.00;;;;;10.36;43.19;98150.09;5047948;28;8850;-78
2024/01/04 04:52:38;;;;;;;;;3.80;3.80;;;;;10.29;43.43;98143.41;4998645;28;8843;-77
2024/01/04 04:55:07;;;;;;;;;1.60;1.60;;;;;10.58;43.03;98149.19;5047619;28;8968;-77
2024/01/04 04:57:39;;;;;;;;;5.20;4.00;;;;;10.67;42.59;98143.53;5047627;28;8862;-79
2024/01/04 05:00:09;;;;;;;;;4.00;4.00;;;;;10.70;42.67;98142.53;5030843;28;8963;-77
2024/01/04 05:02:39;;;;;;;;;6.20;5.80;;;;;10.74;42.23;98136.25;5047533;28;8850;-77
2024/01/04 05:05:09;;;;;;;;;7.00;7.00;;;;;10.83;42.56;98138.47;5047322;28;8943;-77
2024/01/04 05:07:38;;;;;;;;;8.00;6.00;;;;;10.77;42.04;98138.75;4998651;28;9596;-78
2024/01/04 05:10:08;;;;;;;;;6.60;6.40;;;;;10.96;42.27;98144.88;5047548;28;9616;-79
2024/01/04 05:12:37;;;;;;;;;7.00;5.00;;;;;10.89;42.12;98138.19;5007559;28;8951;-79
2024/01/04 05:15:09;;;;;;;;;6.20;6.20;;;;;10.69;42.57;98143.44;5051058;28;8869;-77
2024/01/04 05:17:38;;;;;;;;;7.60;7.60;;;;;10.78;42.68;98138.69;5069688;28;8858;-78
2024/01/04 05:20:09;;;;;;;;;7.00;6.60;;;;;10.85;42.27;98136.63;5069088;28;9581;-77
2024/01/04 05:22:39;;;;;;;;;5.80;5.80;;;;;10.95;42.09;98131.81;5070979;28;8831;-76
2024/01/04 05:25:09;;;;;;;;;7.60;5.80;;;;;10.77;42.75;98134.34;5069951;28;8846;-76
2024/01/04 05:27:38;;;;;;;;;20.60;18.20;;;;;11.05;42.06;98143.63;5070608;28;8946;-77
2024/01/04 05:30:08;;;;;;;;;4.40;4.40;;;;;10.87;42.23;98141.81;5069600;28;9625;-78
2024/01/04 05:32:38;;;;;;;;;5.80;5.00;;;;;11.04;41.89;98146.31;5084448;28;8951;-77
2024/01/04 05:35:11;;;;;;;;;5.60;5.60;;;;;11.02;42.23;98138.50;5069593;28;8978;-76
2024/01/04 05:37:40;;;;;;;;;7.00;6.60;;;;;10.93;42.42;98136.28;5067777;28;8847;-77
2024/01/04 05:40:10;;;;;;;;;5.40;5.20;;;;;10.85;42.67;98135.78;5072478;28;8985;-77
2024/01/04 05:42:39;;;;;;;;;4.20;4.20;;;;;10.95;42.64;98137.94;5069909;28;8846;-77
2024/01/04 05:45:09;;;;;;;;;5.20;5.00;;;;;10.72;42.67;98131.03;5069381;28;8935;-78
2024/01/04 05:47:38;;;;;;;;;5.80;5.20;;;;;10.86;42.63;98126.97;5050903;28;8834;-80
2024/01/04 05:50:09;;;;;;;;;7.80;7.60;;;;;10.83;42.62;98130.59;5046347;28;8873;-77
2024/01/04 05:52:38;;;;;;;;;11.80;10.00;;;;;10.78;42.74;98135.19;5046286;28;8862;-77
2024/01/04 05:55:08;;;;;;;;;11.20;8.60;;;;;10.81;43.00;98135.06;5029683;28;8966;-77
2024/01/04 05:57:37;;;;;;;;;7.00;5.00;;;;;10.81;42.96;98131.59;5013302;28;9032;-77
2024/01/04 06:00:08;;;;;;;;;7.20;5.80;;;;;10.69;43.14;98141.69;5046556;28;8928;-77
2024/01/04 06:02:37;;;;;;;;;7.00;5.80;;;;;10.71;43.14;98139.00;5046768;28;8870;-77
2024/01/04 06:05:07;;;;;;;;;9.00;8.60;;;;;10.76;43.45;98131.78;5046072;28;8854;-78
2024/01/04 06:07:37;;;;;;;;;7.40;7.40;;;;;10.86;42.85;98137.47;4997360;28;8966;-78
2024/01/04 06:10:08;;;;;;;;;5.80;5.80;;;;;10.91;42.99;98138.13;5046138;28;9831;-77
2024/01/04 06:12:37;;;;;;;;;5.80;4.80;;;;;10.84;43.23;98137.56;5045758;28;8870;-79
2024/01/04 06:15:06;;;;;;;;;4.60;4.60;;;;;10.88;43.08;98136.50;5045724;28;8996;-78
2024/01/04 06:17:35;;;;;;;;;7.20;6.20;;;;;11.05;42.74;98132.22;5029287;28;8973;-79
2024/01/04 06:20:05;;;;;;;;;6.20;6.00;;;;;10.87;43.14;98134.78;5046236;28;8861;-79
2024/01/04 06:22:34;;;;;;;;;7.00;6.00;;;;;10.59;43.63;98135.13;5069259;28;8912;-76
2024/01/04 06:25:05;;;;;;;;;7.40;6.20;;;;;10.79;43.26;98129.03;5069688;28;8850;-78
2024/01/04 06:27:34;;;;;;;;;9.20;8.40;;;;;10.83;43.24;98127.97;5071452;28;8964;-77
2024/01/04 06:30:05;;;;;;;;;3.60;3.20;;;;;10.73;43.81;98124.00;5071514;28;9573;-76
2024/01/04 06:32:34;;;;;;;;;4.60;4.00;;;;;10.78;43.84;98124.69;5085067;28;8873;-77
2024/01/04 06:35:03;;;;;;;;;7.20;6.00;;;;;10.79;43.86;98124.63;5069023;28;8893;-78
2024/01/04 06:37:33;;;;;;;;;8.00;8.00;;;;;10.79;43.32;98116.72;5068426;28;8858;-76
2024/01/04 06:40:05;;;;;;;;;6.40;5.40;;;;;10.75;43.71;98112.53;5049872;28;8862;-77
2024/01/04 06:42:36;;;;;;;;;8.80;7.80;;;;;10.88;43.29;98114.59;5050283;28;8963;-78
2024/01/04 06:45:06;;;;;;;;;8.40;8.40;;;;;11.07;43.09;98123.38;5070450;28;8911;-78
2024/01/04 06:47:36;;;;;;;;;7.40;7.40;;;;;11.14;42.92;98123.94;5053893;28;9004;-77
2024/01/04 06:50:06;;;;;;;;;7.00;7.00;;;;;11.22;42.94;98118.31;5021257;28;8872;-79
2024/01/04 06:52:46;;;;;;;;;7.60;6.60;;;;;10.95;43.26;98114.28;5070926;28;10172;-78
2024/01/04 06:55:16;;;;;;;;;6.40;6.40;;;;;10.99;43.29;98109.69;5072411;28;8846;-78
2024/01/04 06:57:46;;;;;;;;;8.40;7.00;;;;;11.17;43.19;98118.53;5072144;28;8858;-77
2024/01/04 07:00:16;;;;;;;;;10.80;9.20;;;;;11.17;42.63;98115.91;5067507;28;8873;-78
2024/01/04 07:02:45;;;;;;;;;9.20;8.60;;;;;11.45;42.63;98112.84;5071844;28;8839;-76
2024/01/04 07:05:14;;;;;;;;;7.00;7.00;;;;;11.65;42.41;98105.75;5072289;28;8904;-79
2024/01/04 07:07:44;;;;;;;;;12.20;12.20;;;;;11.65;41.67;98096.06;5072051;28;8869;-78
2024/01/04 07:10:14;;;;;;;;;13.20;10.40;;;;;11.55;41.92;98095.66;5020818;28;8901;-78
2024/01/04 07:12:43;;;;;;;;;11.80;10.00;;;;;11.69;41.80;98099.41;5071772;28;9000;-77
2024/01/04 07:15:14;;;;;;;;;12.00;9.80;;;;;11.83;41.96;98097.00;5071888;28;9018;-78
2024/01/04 07:17:43;;;;;;;;;7.60;7.60;;;;;11.75;41.85;98097.34;5070621;28;9660;-79
2024/01/04 07:20:12;;;;;;;;;8.80;8.80;;;;;11.67;41.88;98096.00;5036809;28;8939;-79
2024/01/04 07:22:42;;;;;;;;;8.60;7.60;;;;;11.76;41.60;98095.56;5072464;28;8895;-79
2024/01/04 07:25:10;;;;;;;;;13.20;11.80;;;;;11.88;41.79;98097.63;5071117;28;8854;-76
2024/01/04 07:27:40;;;;;;;;;11.60;10.20;;;;;11.93;41.52;98105.28;5070558;28;8862;-77
2024/01/04 07:30:10;;;;;;;;;12.20;9.40;;;;;12.07;41.21;98102.84;5053243;28;9572;-77
2024/01/04 07:32:41;;;;;;;;;11.60;11.40;;;;;12.04;41.79;98102.97;5071870;28;8862;-77
2024/01/04 07:35:12;;;;;;;;;10.00;9.00;;;;;12.04;41.59;98112.66;5071928;28;8847;-77
2024/01/04 07:37:45;;;;;;;;;9.80;9.80;;;;;12.11;41.16;98111.44;5072422;28;8992;-78
2024/01/04 07:40:14;;;;;;;;;12.20;12.20;;;;;12.25;40.82;98113.38;5071868;28;8834;-78
2024/01/04 07:42:43;;;;;;;;;10.00;9.00;;;;;12.34;41.00;98112.91;5071394;28;8843;-78
2024/01/04 07:45:12;;;;;;;;;9.80;9.60;;;;;12.45;40.85;98118.47;5071116;28;8894;-78
2024/01/04 07:47:43;;;;;;;;;13.40;12.40;;;;;12.53;40.70;98121.53;5036246;28;8888;-77
2024/01/04 07:50:12;;;;;;;;;13.00;13.00;;;;;12.59;40.61;98119.53;5070800;28;8870;-77
2024/01/04 07:52:42;;;;;;;;;11.00;9.80;;;;;12.72;40.41;98115.31;5071311;28;8838;-79
2024/01/04 07:55:11;;;;;;;;;6.60;5.60;;;;;12.80;40.11;98126.31;5071018;28;8927;-77
2024/01/04 07:57:40;;;;;;;;;9.80;9.80;;;;;12.82;40.45;98128.88;5070155;28;8858;-78
2024/01/04 08:00:10;;;;;;;;;14.40;13.60;;;;;11.67;41.56;98164.44;5070725;28;8834;-78
2024/01/04 08:02:44;;;;;;;;;17.60;15.40;;;;;10.27;45.10;98192.50;5052604;28;8850;-76
2024/01/04 08:05:13;;;;;;;;;10.00;8.80;;;;;10.41;44.82;98176.19;5069342;28;9050;-77
2024/01/04 08:07:44;;;;;;;;;8.00;7.40;;;;;10.30;44.71;98191.53;5070804;28;9035;-78
2024/01/04 08:10:13;;;;;;;;;11.60;10.20;;;;;9.91;46.18;98203.56;5069774;28;8923;-79
2024/01/04 08:12:45;;;;;;;;;13.40;11.20;;;;;9.77;47.32;98208.53;5069408;28;8889;-77
2024/01/04 08:15:15;;;;;;;;;16.40;15.40;;;;;9.73;48.26;98217.44;5070555;28;8826;-77
2024/01/04 08:17:45;;;;;;;;;21.80;20.00;;;;;9.90;48.63;98206.28;5086229;28;8947;-76
2024/01/04 08:20:15;;;;;;;;;18.60;17.80;;;;;9.75;48.44;98211.22;5070858;28;8847;-77
2024/01/04 08:22:44;;;;;;;;;22.00;20.60;;;;;9.68;48.46;98212.38;5070326;28;8850;-79
2024/01/04 08:25:13;;;;;;;;;31.60;28.60;;;;;9.56;48.63;98220.69;5036195;28;8862;-79
2024/01/04 08:27:42;;;;;;;;;28.40;26.80;;;;;9.83;48.43;98237.16;5072700;28;8888;-78
2024/01/04 08:30:13;;;;;;;;;16.40;14.00;;;;;9.97;48.01;98248.00;5070159;28;8981;-77
2024/01/04 08:32:42;;;;;;;;;13.60;13.00;;;;;9.89;48.21;98275.44;5071836;28;8858;-77
2024/01/04 08:35:13;;;;;;;;;10.00;9.80;;;;;9.13;50.83;98298.31;5053284;28;8947;-78
2024/01/04 08:37:44;;;;;;;;;2.60;0.80;;;;;8.92;52.33;98303.38;5070379;28;9001;-77
2024/01/04 08:40:14;;;;;;;;;10.40;9.40;;;;;8.99;52.58;98299.63;5068650;28;8870;-76
2024/01/04 08:42:43;;;;;;;;;8.40;8.40;;;;;8.41;55.05;98317.28;5068902;28;8850;-78
2024/01/04 08:45:12;;;;;;;;;14.40;13.80;;;;;8.22;57.03;98304.75;5069047;28;8869;-77
2024/01/04 08:47:41;;;;;;;;;14.40;13.40;;;;;8.28;57.87;98301.06;5070261;28;8973;-77
2024/01/04 08:50:12;;;;;;;;;13.20;12.60;;;;;7.59;63.31;98308.38;5070236;28;8926;-77
2024/01/04 08:52:41;;;;;;;;;9.40;9.20;;;;;6.74;69.41;98314.97;5069660;28;8831;-76
2024/01/04 08:55:10;;;;;;;;;11.80;9.80;;;;;6.39;73.97;98308.88;5051564;28;8876;-76
2024/01/04 08:57:39;;;;;;;;;9.00;8.60;;;;;6.37;76.54;98297.63;5051260;28;8966;-75
2024/01/04 09:00:10;;;;;;;;;29.80;25.00;;;;;6.25;77.76;98296.16;5070114;28;8827;-79
2024/01/04 09:02:39;;;;;;;;;8.60;8.00;;;;;6.09;77.25;98301.72;5085716;28;8990;-78
2024/01/04 09:05:09;;;;;;;;;12.40;12.20;;;;;6.07;78.65;98300.03;5070129;28;8846;-78
2024/01/04 09:07:39;;;;;;;;;18.80;18.00;;;;;5.98;78.87;98298.50;5051644;28;8976;-78
2024/01/04 09:10:09;;;;;;;;;6.40;6.40;;;;;5.95;77.44;98292.50;5070468;28;8923;-78
2024/01/04 09:12:39;;;;;;;;;14.40;14.40;;;;;5.90;79.07;98308.25;5075341;28;8851;-77
2024/01/04 09:15:10;;;;;;;;;13.60;11.40;;;;;5.92;78.43;98303.84;5079315;28;9603;-78
2024/01/04 09:17:39;;;;;;;;;13.60;12.40;;;;;5.95;78.49;98300.34;5072393;28;8881;-81
2024/01/04 09:20:09;;;;;;;;;10.20;8.40;;;;;5.88;79.18;98297.84;5069241;28;9655;-78
2024/01/04 09:22:39;;;;;;;;;16.00;14.20;;;;;5.95;80.26;98298.56;5068592;28;8955;-78
2024/01/04 09:25:09;;;;;;;;;22.80;19.60;;;;;6.38;80.18;98281.06;5067226;28;8852;-80
2024/01/04 09:27:40;;;;;;;;;14.60;12.60;;;;;6.76;78.83;98276.63;5051046;28;9658;-78
2024/01/04 09:30:11;;;;;;;;;6.60;6.20;;;;;7.09;78.77;98261.84;5050508;28;8884;-79
2024/01/04 09:32:40;;;;;;;;;7.80;5.80;;;;;7.29;75.82;98248.25;5051049;28;8858;-78
2024/01/04 09:35:09;;;;;;;;;6.40;6.40;;;;;7.62;75.88;98249.00;5052340;28;9033;-81
2024/01/04 09:37:40;;;;;;;;;5.40;5.40;;;;;7.83;75.32;98250.09;5017863;28;8844;-82
2024/01/04 09:40:12;;;;;;;;;7.80;7.00;;;;;8.13;76.04;98251.81;5033790;28;8836;-81
2024/01/04 09:42:42;;;;;;;;;7.60;7.60;;;;;8.32;75.08;98241.66;5068044;28;9033;-80
2024/01/04 09:45:18;;;;;;;;;14.80;10.40;;;;;8.52;75.74;98252.31;5018534;28;8871;-78
2024/01/04 09:47:50;;;;;;;;;13.20;11.40;;;;;8.70;75.79;98250.84;5067753;28;8998;-79
2024/01/04 09:50:20;;;;;;;;;11.40;11.00;;;;;8.87;75.85;98250.25;5034488;28;8932;-80
2024/01/04 09:52:54;;;;;;;;;14.80;12.80;;;;;9.06;75.81;98249.63;5034077;28;9002;-80
2024/01/04 09:55:24;;;;;;;;;17.00;16.00;;;;;9.13;74.94;98248.50;5050953;28;8843;-80
2024/01/04 09:57:53;;;;;;;;;12.40;12.40;;;;;9.16;74.15;98243.16;5030089;28;8859;-78
2024/01/04 10:00:23;;;;;;;;;18.80;17.00;;;;;9.12;72.72;98250.28;5030956;28;8850;-80
2024/01/04 10:02:52;;;;;;;;;17.40;16.40;;;;;9.14;72.87;98247.56;5041403;28;8889;-79
2024/01/04 10:05:22;;;;;;;;;18.40;18.40;;;;;9.25;73.90;98253.28;5014328;28;9679;-80
2024/01/04 10:08:04;;;;;;;;;20.20;19.20;;;;;9.30;72.67;98263.63;5048354;28;9004;-81
2024/01/04 10:10:41;;;;;;;;;24.40;23.80;;;;;9.21;73.25;98294.50;5014457;28;8881;-80
2024/01/04 10:13:11;;;;;;;;;25.00;24.20;;;;;9.07;73.60;98293.28;4984796;28;8944;-79
2024/01/04 10:15:47;;;;;;;;;23.20;19.20;;;;;9.23;74.59;98294.44;5003598;28;8842;-81
2024/01/04 10:18:17;;;;;;;;;27.00;24.40;;;;;9.33;74.65;98287.97;4971181;28;8862;-78
2024/01/04 10:21:00;;;;;;;;;31.60;28.60;;;;;9.43;73.54;98302.44;5003415;28;8870;-79
2024/01/04 10:23:32;;;;;;;;;39.60;35.60;;;;;9.38;72.84;98304.38;4987722;28;8901;-79
2024/01/04 10:26:08;;;;;;;;;48.25;41.75;;;;;9.57;74.40;98316.84;4972047;28;8874;-80
2024/01/04 10:28:39;;;;;;;;;21.40;21.40;;;;;9.24;70.04;98317.13;4951137;28;8873;-80
2024/01/04 10:31:09;;;;;;;;;37.00;34.80;;;;;9.27;72.04;98310.91;5026563;28;8856;-80
2024/01/04 10:33:38;;;;;;;;;32.80;30.20;;;;;9.41;71.90;98308.66;5026027;28;8911;-79
2024/01/04 10:36:10;;;;;;;;;25.00;20.00;;;;;9.51;71.15;98312.66;5026178;28;8942;-80
2024/01/04 10:38:41;;;;;;;;;32.40;28.20;;;;;9.64;71.89;98294.72;5022431;28;9603;-81
2024/01/04 10:41:10;;;;;;;;;28.00;27.20;;;;;9.65;71.30;98296.47;4994027;28;9019;-78
2024/01/04 10:43:42;;;;;;;;;28.20;27.00;;;;;9.76;71.43;98296.03;5009912;28;8958;-80
2024/01/04 10:46:12;;;;;;;;;35.60;34.80;;;;;9.85;72.28;98294.84;5026916;28;8845;-80
2024/01/04 10:48:43;;;;;;;;;35.20;34.20;;;;;9.91;71.83;98281.47;5026474;28;9035;-79
2024/01/04 10:51:13;;;;;;;;;32.20;29.40;;;;;9.99;71.53;98282.06;5026481;28;8864;-79
2024/01/04 10:53:44;;;;;;;;;30.60;29.40;;;;;10.08;71.53;98289.56;4978147;28;8857;-80
2024/01/04 10:56:14;;;;;;;;;41.00;34.40;;;;;10.08;70.65;98284.28;5010902;28;9105;-81
2024/01/04 10:58:48;;;;;;;;;32.80;31.80;;;;;10.13;70.83;98299.88;5030256;28;8991;-81
2024/01/04 11:01:18;;;;;;;;;42.00;36.50;;;;;10.00;69.54;98286.38;5049649;28;8874;-79
2024/01/04 11:03:48;;;;;;;;;37.80;35.40;;;;;9.73;68.33;98278.66;5027202;28;8866;-82
2024/01/04 11:06:19;;;;;;;;;36.20;33.60;;;;;9.77;69.55;98285.50;5032941;28;8858;-79
2024/01/04 11:08:50;;;;;;;;;46.60;38.40;;;;;9.81;69.31;98283.59;5047907;28;8877;-81
2024/01/04 11:11:19;;;;;;;;;41.40;36.00;;;;;9.59;69.85;98276.56;5068293;28;8847;-82
2024/01/04 11:13:49;;;;;;;;;36.40;34.80;;;;;9.48;68.43;98286.56;5050055;28;8976;-80
2024/01/04 11:16:33;;;;;;;;;30.60;30.40;;;;;9.57;69.42;98282.75;5069214;28;8838;-81
2024/01/04 11:19:13;;;;;;;;;34.00;30.80;;;;;9.70;69.62;98284.00;5068686;28;8883;-80
2024/01/04 11:22:02;;;;;;;;;26.60;26.20;;;;;9.86;69.90;98278.16;5068435;28;8870;-81
2024/01/04 11:24:44;;;;;;;;;28.00;26.80;;;;;10.00;70.15;98273.25;5051338;28;9146;-80
2024/01/04 11:27:17;;;;;;;;;23.40;22.00;;;;;10.05;68.95;98270.44;5068458;28;9308;-79
2024/01/04 11:29:49;;;;;;;;;23.80;22.60;;;;;10.19;69.47;98263.72;5067825;28;8854;-78
2024/01/04 11:32:19;;;;;;;;;22.80;18.80;;;;;10.35;69.33;98263.13;5070991;28;8964;-81
2024/01/04 11:34:49;;;;;;;;;18.00;18.00;;;;;10.33;68.49;98264.94;5036949;28;8855;-81
2024/01/04 11:37:20;;;;;;;;;19.60;19.00;;;;;10.36;67.29;98265.66;5070838;28;8873;-82
2024/01/04 11:40:03;;;;;;;;;22.60;22.20;;;;;10.37;65.13;98258.66;5071673;28;8932;-82
2024/01/04 11:42:36;;;;;;;;;21.60;21.60;;;;;10.35;67.02;98260.50;5072537;28;9666;-81
2024/01/04 11:45:07;;;;;;;;;17.00;15.60;;;;;10.43;67.39;98257.56;5087749;28;9091;-80
2024/01/04 11:47:38;;;;;;;;;21.80;21.60;;;;;10.51;67.59;98263.34;5055770;28;8830;-80
2024/01/04 11:50:15;;;;;;;;;21.80;20.00;;;;;10.60;67.61;98262.97;5075736;28;8922;-78